createdAt,value
2023-05-01T00:00:37.890Z,100.00
2023-05-01T00:03:04.687Z,100.00
2023-05-01T00:05:31.916Z,100.00
2023-05-01T00:07:58.786Z,100.00
2023-05-01T00:10:25.668Z,100.00
2023-05-01T00:12:52.510Z,100.00
2023-05-01T00:15:19.203Z,100.00
2023-05-01T00:17:46.233Z,100.00
2023-05-01T00:20:13.222Z,100.00
2023-05-01T00:22:39.965Z,100.00
2023-05-01T00:25:07.471Z,100.00
2023-05-01T00:27:36.618Z,100.00
2023-05-01T00:30:03.810Z,100.00
2023-05-01T00:32:30.692Z,100.00
2023-05-01T00:34:58.062Z,100.00
2023-05-01T00:37:24.689Z,100.00
2023-05-01T00:39:51.468Z,100.00
2023-05-01T00:42:18.213Z,100.00
2023-05-01T00:44:44.953Z,100.00
2023-05-01T00:47:11.995Z,100.00
2023-05-01T00:49:38.943Z,100.00
2023-05-01T00:52:05.674Z,100.00
2023-05-01T00:54:32.374Z,100.00
2023-05-01T00:57:00.618Z,100.00
2023-05-01T00:59:27.509Z,100.00
2023-05-01T01:01:56.762Z,100.00
2023-05-01T01:04:23.583Z,100.00
2023-05-01T01:06:59.009Z,100.00
2023-05-01T01:09:44.413Z,100.00
2023-05-01T01:12:32.953Z,100.00
2023-05-01T01:15:04.142Z,100.00
2023-05-01T01:17:39.240Z,100.00
2023-05-01T01:20:30.859Z,100.00
2023-05-01T01:23:03.699Z,100.00
2023-05-01T01:25:51.073Z,100.00
2023-05-01T01:28:43.948Z,100.00
2023-05-01T01:31:14.495Z,100.00
2023-05-01T01:33:49.558Z,100.00
2023-05-01T01:36:19.648Z,100.00
2023-05-01T01:39:03.159Z,100.00
2023-05-01T01:41:33.314Z,100.00
2023-05-01T01:45:00.673Z,100.00
2023-05-01T01:47:28.639Z,100.00
2023-05-01T01:49:56.950Z,100.00
2023-05-01T01:52:25.231Z,100.00
2023-05-01T01:54:55.110Z,100.00
2023-05-01T01:57:23.022Z,100.00
2023-05-01T01:59:51.383Z,100.00
2023-05-01T02:02:20.792Z,100.00
2023-05-01T02:04:51.978Z,100.00
2023-05-01T02:07:20.456Z,100.00
2023-05-01T02:09:48.568Z,100.00
2023-05-01T02:12:17.144Z,100.00
2023-05-01T02:14:44.775Z,100.00
2023-05-01T02:17:11.943Z,100.00
2023-05-01T02:19:42.498Z,100.00
2023-05-01T02:22:10.242Z,100.00
2023-05-01T02:24:38.361Z,100.00
2023-05-01T02:27:10.920Z,100.00
2023-05-01T02:29:37.850Z,100.00
2023-05-01T02:32:04.681Z,100.00
2023-05-01T02:34:34.871Z,100.00
2023-05-01T02:37:02.605Z,100.00
2023-05-01T02:39:29.393Z,100.00
2023-05-01T02:41:58.617Z,100.00
2023-05-01T02:44:26.582Z,100.00
2023-05-01T02:46:53.989Z,100.00
2023-05-01T02:49:21.675Z,100.00
2023-05-01T02:51:48.803Z,100.00
2023-05-01T02:54:16.478Z,100.00
2023-05-01T02:56:43.380Z,100.00
2023-05-01T02:59:10.073Z,100.00
2023-05-01T03:01:37.080Z,100.00
2023-05-01T03:04:04.221Z,100.00
2023-05-01T03:06:31.319Z,100.00
2023-05-01T03:08:58.042Z,100.00
2023-05-01T03:11:24.779Z,100.00
2023-05-01T03:13:51.577Z,100.00
2023-05-01T03:16:18.711Z,100.00
2023-05-01T03:18:45.516Z,100.00
2023-05-01T03:21:13.103Z,100.00
2023-05-01T03:23:39.980Z,100.00
2023-05-01T03:26:07.801Z,100.00
2023-05-01T03:28:34.559Z,100.00
2023-05-01T03:31:01.475Z,100.00
2023-05-01T03:33:28.241Z,100.00
2023-05-01T03:36:05.821Z,100.00
2023-05-01T03:38:33.081Z,100.00
2023-05-01T03:41:00.249Z,100.00
2023-05-01T03:43:26.911Z,100.00
2023-05-01T03:45:53.754Z,100.00
2023-05-01T03:48:20.932Z,100.00
2023-05-01T03:50:47.794Z,100.00
2023-05-01T03:53:14.764Z,100.00
2023-05-01T03:55:41.771Z,100.00
2023-05-01T03:58:08.566Z,100.00
2023-05-01T04:00:35.285Z,100.00
2023-05-01T04:03:02.295Z,100.00
2023-05-01T04:05:30.053Z,100.00
2023-05-01T04:07:57.214Z,100.00
2023-05-01T04:10:23.912Z,100.00
2023-05-01T04:12:50.681Z,100.00
2023-05-01T04:15:17.511Z,100.00
2023-05-01T04:17:44.481Z,100.00
2023-05-01T04:20:11.648Z,100.00
2023-05-01T04:22:38.427Z,100.00
2023-05-01T04:25:05.576Z,100.00
2023-05-01T04:27:32.254Z,100.00
2023-05-01T04:29:59.038Z,100.00
2023-05-01T04:32:25.995Z,100.00
2023-05-01T04:34:53.625Z,100.00
2023-05-01T04:37:20.335Z,100.00
2023-05-01T04:39:47.002Z,100.00
2023-05-01T04:42:13.714Z,100.00
2023-05-01T04:44:40.451Z,100.00
2023-05-01T04:47:07.676Z,100.00
2023-05-01T04:49:34.840Z,100.00
2023-05-01T04:52:01.598Z,100.00
2023-05-01T04:54:28.320Z,100.00
2023-05-01T04:56:54.969Z,100.00
2023-05-01T04:59:21.860Z,100.00
2023-05-01T05:01:48.711Z,100.00
2023-05-01T05:04:15.422Z,100.00
2023-05-01T05:06:42.307Z,100.00
2023-05-01T05:09:09.145Z,100.00
2023-05-01T05:11:35.937Z,100.00
2023-05-01T05:14:02.860Z,100.00
2023-05-01T05:16:30.029Z,100.00
2023-05-01T05:18:57.826Z,100.00
2023-05-01T05:21:24.548Z,100.00
2023-05-01T05:23:51.258Z,100.00
2023-05-01T05:26:18.756Z,100.00
2023-05-01T05:28:45.796Z,100.00
2023-05-01T05:31:12.722Z,100.00
2023-05-01T05:33:39.498Z,100.00
2023-05-01T05:36:06.865Z,100.00
2023-05-01T05:38:33.555Z,100.00
2023-05-01T05:41:01.185Z,100.00
2023-05-01T05:43:28.398Z,100.00
2023-05-01T05:45:59.102Z,100.00
2023-05-01T05:48:26.024Z,100.00
2023-05-01T05:50:53.146Z,100.00
2023-05-01T05:53:20.456Z,100.00
2023-05-01T05:55:48.377Z,100.00
2023-05-01T05:58:20.264Z,100.00
2023-05-01T06:00:48.600Z,100.00
2023-05-01T06:03:16.390Z,100.00
2023-05-01T06:05:43.714Z,100.00
2023-05-01T06:08:10.930Z,100.00
2023-05-01T06:10:39.739Z,100.00
2023-05-01T06:13:14.061Z,98.04
2023-05-01T06:15:41.800Z,93.44
2023-05-01T06:18:09.144Z,90.91
2023-05-01T06:20:36.550Z,77.25
2023-05-01T06:23:03.564Z,76.77
2023-05-01T06:25:30.311Z,77.63
2023-05-01T06:27:57.037Z,73.88
2023-05-01T06:30:23.756Z,72.24
2023-05-01T06:32:50.538Z,68.71
2023-05-01T06:35:17.269Z,68.56
2023-05-01T06:37:44.035Z,65.18
2023-05-01T06:40:11.529Z,64.54
2023-05-01T06:42:39.066Z,52.74
2023-05-01T06:45:07.447Z,51.44
2023-05-01T06:47:34.265Z,51.42
2023-05-01T06:50:02.886Z,52.27
2023-05-01T06:52:31.255Z,50.81
2023-05-01T06:54:57.937Z,52.00
2023-05-01T06:57:24.699Z,52.19
2023-05-01T06:59:51.412Z,52.87
2023-05-01T07:02:18.334Z,54.11
2023-05-01T07:04:45.478Z,56.36
2023-05-01T07:07:12.355Z,56.80
2023-05-01T07:09:40.550Z,58.04
2023-05-01T07:12:07.451Z,58.97
2023-05-01T07:14:37.448Z,57.18
2023-05-01T07:17:04.263Z,58.00
2023-05-01T07:19:30.972Z,57.19
2023-05-01T07:21:58.070Z,57.61
2023-05-01T07:24:25.147Z,56.15
2023-05-01T07:26:52.087Z,56.56
2023-05-01T07:29:18.882Z,57.33
2023-05-01T07:31:46.540Z,52.93
2023-05-01T07:34:13.745Z,51.03
2023-05-01T07:36:41.645Z,50.51
2023-05-01T07:39:08.407Z,51.76
2023-05-01T07:41:35.076Z,49.98
2023-05-01T07:44:03.620Z,49.11
2023-05-01T07:46:30.403Z,48.57
2023-05-01T07:48:57.149Z,48.27
2023-05-01T07:51:24.095Z,48.04
2023-05-01T07:53:50.861Z,48.17
2023-05-01T07:56:17.619Z,48.11
2023-05-01T07:58:44.464Z,47.13
2023-05-01T08:01:11.372Z,46.12
2023-05-01T08:03:38.182Z,45.17
2023-05-01T08:06:05.896Z,45.61
2023-05-01T08:08:32.642Z,45.43
2023-05-01T08:10:59.297Z,44.11
2023-05-01T08:13:26.134Z,43.87
2023-05-01T08:15:53.214Z,44.90
2023-05-01T08:18:21.287Z,44.20
2023-05-01T08:20:48.448Z,44.80
2023-05-01T08:23:18.755Z,44.05
2023-05-01T08:25:51.164Z,43.46
2023-05-01T08:28:20.929Z,43.68
2023-05-01T08:30:49.346Z,40.58
2023-05-01T08:33:16.544Z,40.54
2023-05-01T08:35:43.424Z,40.36
2023-05-01T08:38:11.866Z,40.42
2023-05-01T08:40:38.952Z,40.30
2023-05-01T08:43:05.721Z,40.71
2023-05-01T08:45:36.297Z,42.43
2023-05-01T08:48:06.748Z,44.81
2023-05-01T08:50:36.564Z,45.16
2023-05-01T08:53:04.400Z,45.80
2023-05-01T08:55:32.594Z,44.96
2023-05-01T08:57:59.726Z,44.50
2023-05-01T09:00:29.032Z,44.32
2023-05-01T09:02:56.512Z,44.41
2023-05-01T09:05:23.273Z,45.22
2023-05-01T09:07:50.231Z,44.92
2023-05-01T09:10:20.492Z,45.35
2023-05-01T09:12:56.483Z,45.69
2023-05-01T09:15:24.609Z,46.10
2023-05-01T09:17:51.488Z,46.11
2023-05-01T09:20:19.795Z,45.09
2023-05-01T09:22:46.751Z,45.19
2023-05-01T09:25:13.592Z,45.77
2023-05-01T09:27:40.344Z,44.54
2023-05-01T09:30:07.816Z,45.73
2023-05-01T09:32:42.481Z,44.94
2023-05-01T09:35:14.951Z,45.26
2023-05-01T09:37:42.204Z,45.20
2023-05-01T09:40:09.182Z,44.41
2023-05-01T09:42:56.351Z,43.49
2023-05-01T09:45:23.750Z,43.70
2023-05-01T09:47:50.872Z,42.78
2023-05-01T09:50:39.249Z,43.35
2023-05-01T09:53:06.746Z,41.62
2023-05-01T09:55:36.718Z,42.56
2023-05-01T09:58:03.804Z,43.02
2023-05-01T10:00:30.888Z,43.22
2023-05-01T10:02:57.690Z,42.53
2023-05-01T10:05:24.798Z,42.51
2023-05-01T10:08:02.517Z,42.99
2023-05-01T10:10:29.656Z,41.83
2023-05-01T10:12:56.771Z,42.67
2023-05-01T10:15:26.998Z,41.76
2023-05-01T10:17:55.026Z,41.86
2023-05-01T10:20:22.515Z,42.30
2023-05-01T10:22:49.861Z,41.48
2023-05-01T10:25:18.175Z,42.31
2023-05-01T10:27:45.342Z,42.67
2023-05-01T10:30:12.773Z,43.00
2023-05-01T10:32:41.373Z,43.06
2023-05-01T10:35:13.252Z,43.77
2023-05-01T10:37:56.581Z,43.05
2023-05-01T10:40:45.582Z,42.88
2023-05-01T10:43:16.106Z,42.35
2023-05-01T10:46:08.270Z,42.09
2023-05-01T10:48:47.599Z,42.40
2023-05-01T10:51:27.184Z,42.18
2023-05-01T10:54:13.036Z,42.13
2023-05-01T10:56:39.725Z,42.39
2023-05-01T10:59:06.862Z,41.37
2023-05-01T11:01:45.632Z,40.32
2023-05-01T11:04:27.512Z,40.67
2023-05-01T11:07:21.668Z,40.16
2023-05-01T11:09:59.143Z,41.23
2023-05-01T11:12:58.594Z,40.91
2023-05-01T11:15:29.429Z,41.25
2023-05-01T11:17:57.363Z,41.13
2023-05-01T11:20:27.258Z,40.31
2023-05-01T11:22:57.814Z,40.58
2023-05-01T11:25:31.554Z,40.15
2023-05-01T11:27:59.816Z,39.63
2023-05-01T11:30:26.860Z,40.02
2023-05-01T11:32:53.762Z,39.95
2023-05-01T11:35:22.777Z,39.20
2023-05-01T11:37:51.462Z,39.62
2023-05-01T11:40:29.676Z,38.89
2023-05-01T11:43:07.228Z,38.76
2023-05-01T11:45:37.964Z,38.91
2023-05-01T11:48:05.715Z,38.82
2023-05-01T11:50:35.860Z,39.57
2023-05-01T11:53:04.019Z,39.56
2023-05-01T11:55:32.628Z,39.13
2023-05-01T11:57:59.541Z,39.67
2023-05-01T12:00:34.851Z,39.12
2023-05-01T12:03:08.700Z,39.23
2023-05-01T12:05:37.531Z,39.35
2023-05-01T12:08:07.453Z,39.14
2023-05-01T12:10:35.694Z,39.40
2023-05-01T12:13:04.125Z,38.79
2023-05-01T12:15:34.775Z,38.52
2023-05-01T12:18:01.557Z,38.19
2023-05-01T12:20:41.938Z,38.17
2023-05-01T12:23:11.633Z,38.30
2023-05-01T12:25:39.924Z,38.68
2023-05-01T12:28:13.200Z,38.84
2023-05-01T12:30:40.611Z,38.95
2023-05-01T12:33:11.724Z,39.22
2023-05-01T12:35:39.669Z,39.13
2023-05-01T12:38:23.710Z,38.50
2023-05-01T12:40:59.821Z,38.42
2023-05-01T12:43:37.136Z,38.09
2023-05-01T12:46:05.444Z,38.03
2023-05-01T12:48:34.451Z,37.68
2023-05-01T12:51:06.852Z,37.99
2023-05-01T12:53:33.803Z,37.96
2023-05-01T12:56:01.434Z,38.28
2023-05-01T12:58:36.340Z,38.37
2023-05-01T13:01:03.104Z,38.40
2023-05-01T13:03:31.035Z,37.80
2023-05-01T13:06:01.749Z,38.03
2023-05-01T13:08:33.323Z,38.01
2023-05-01T13:11:13.284Z,36.86
2023-05-01T13:13:41.024Z,37.16
2023-05-01T13:16:16.311Z,37.02
2023-05-01T13:18:47.997Z,36.72
2023-05-01T13:21:19.776Z,36.48
2023-05-01T13:24:04.919Z,36.85
2023-05-01T13:26:33.739Z,37.29
2023-05-01T13:29:02.156Z,36.73
2023-05-01T13:31:29.586Z,36.18
2023-05-01T13:33:58.412Z,36.24
2023-05-01T13:36:32.412Z,36.34
2023-05-01T13:38:59.445Z,36.64
2023-05-01T13:41:27.712Z,36.10
2023-05-01T13:43:56.447Z,36.29
2023-05-01T13:46:35.200Z,36.08
2023-05-01T13:49:08.301Z,36.17
2023-05-01T13:51:37.816Z,36.57
2023-05-01T13:54:04.963Z,36.30
2023-05-01T13:56:34.409Z,36.25
2023-05-01T13:59:01.404Z,36.05
2023-05-01T14:01:28.212Z,35.87
2023-05-01T14:04:00.566Z,36.15
2023-05-01T14:06:28.904Z,35.92
2023-05-01T14:08:58.440Z,36.02
2023-05-01T14:11:25.214Z,36.31
2023-05-01T14:13:52.301Z,36.67
2023-05-01T14:16:27.301Z,36.77
2023-05-01T14:18:57.169Z,36.55
2023-05-01T14:21:27.403Z,36.17
2023-05-01T14:23:54.738Z,36.06
2023-05-01T14:26:22.146Z,36.13
2023-05-01T14:28:49.222Z,36.09
2023-05-01T14:31:30.352Z,35.99
2023-05-01T14:34:01.008Z,35.77
2023-05-01T14:36:31.188Z,35.96
2023-05-01T14:38:59.306Z,35.87
2023-05-01T14:41:26.202Z,35.24
2023-05-01T14:43:53.951Z,35.42
2023-05-01T14:46:31.632Z,35.19
2023-05-01T14:48:59.523Z,35.65
2023-05-01T14:51:27.359Z,35.32
2023-05-01T14:53:54.316Z,35.63
2023-05-01T14:56:21.573Z,35.85
2023-05-01T14:58:49.517Z,36.10
2023-05-01T15:01:17.019Z,36.20
2023-05-01T15:03:44.205Z,36.43
2023-05-01T15:06:11.547Z,36.71
2023-05-01T15:08:38.915Z,36.32
2023-05-01T15:11:05.911Z,36.13
2023-05-01T15:13:32.685Z,35.77
2023-05-01T15:15:59.475Z,35.08
2023-05-01T15:18:26.479Z,34.58
2023-05-01T15:20:53.445Z,34.12
2023-05-01T15:23:20.385Z,34.18
2023-05-01T15:25:50.986Z,33.95
2023-05-01T15:28:19.312Z,33.37
2023-05-01T15:30:47.180Z,32.69
2023-05-01T15:33:17.134Z,32.11
2023-05-01T15:35:46.328Z,32.35
2023-05-01T15:38:13.415Z,33.39
2023-05-01T15:40:40.221Z,33.37
2023-05-01T15:43:06.999Z,33.80
2023-05-01T15:45:33.944Z,33.72
2023-05-01T15:48:01.351Z,33.00
2023-05-01T15:50:28.539Z,32.66
2023-05-01T15:52:55.237Z,32.68
2023-05-01T15:55:22.199Z,33.99
2023-05-01T15:57:49.151Z,32.53
2023-05-01T16:00:17.355Z,32.08
2023-05-01T16:02:44.830Z,32.11
2023-05-01T16:05:12.612Z,32.72
2023-05-01T16:07:39.565Z,31.97
2023-05-01T16:10:08.517Z,31.46
2023-05-01T16:12:35.267Z,32.47
2023-05-01T16:15:05.206Z,33.19
2023-05-01T16:17:33.684Z,32.89
2023-05-01T16:20:02.604Z,32.43
2023-05-01T16:22:29.762Z,31.68
2023-05-01T16:24:59.888Z,32.07
2023-05-01T16:27:26.628Z,32.52
2023-05-01T16:29:53.266Z,32.27
2023-05-01T16:32:20.875Z,32.52
2023-05-01T16:34:49.432Z,32.23
2023-05-01T16:37:17.587Z,32.94
2023-05-01T16:39:44.659Z,32.61
2023-05-01T16:42:14.878Z,33.05
2023-05-01T16:44:41.574Z,32.69
2023-05-01T16:47:11.647Z,33.45
2023-05-01T16:49:42.100Z,33.26
2023-05-01T16:52:13.550Z,33.33
2023-05-01T16:54:40.197Z,33.72
2023-05-01T16:57:07.768Z,33.52
2023-05-01T16:59:34.763Z,34.18
2023-05-01T17:02:01.499Z,34.30
2023-05-01T17:04:28.767Z,35.09
2023-05-01T17:06:56.285Z,35.90
2023-05-01T17:09:23.169Z,36.71
2023-05-01T17:11:49.904Z,37.94
2023-05-01T17:14:16.660Z,38.58
2023-05-01T17:16:43.462Z,39.30
2023-05-01T17:19:10.265Z,40.13
2023-05-01T17:21:37.034Z,40.00
2023-05-01T17:24:04.591Z,40.30
2023-05-01T17:26:31.603Z,40.76
2023-05-01T17:28:58.385Z,41.30
2023-05-01T17:31:25.258Z,41.33
2023-05-01T17:33:52.033Z,41.75
2023-05-01T17:36:19.102Z,42.06
2023-05-01T17:38:45.967Z,42.64
2023-05-01T17:41:12.670Z,43.08
2023-05-01T17:43:39.526Z,43.79
2023-05-01T17:46:06.633Z,43.72
2023-05-01T17:48:35.234Z,44.36
2023-05-01T17:51:02.079Z,43.92
2023-05-01T17:53:28.899Z,43.48
2023-05-01T17:55:55.636Z,44.13
2023-05-01T17:58:22.380Z,44.19
2023-05-01T18:00:49.132Z,44.44
2023-05-01T18:03:16.098Z,45.33
2023-05-01T18:05:44.420Z,44.69
2023-05-01T18:08:11.938Z,45.67
2023-05-01T18:10:38.690Z,45.81
2023-05-01T18:13:05.483Z,45.54
2023-05-01T18:15:32.328Z,45.66
2023-05-01T18:18:23.504Z,45.85
2023-05-01T18:20:50.383Z,45.80
2023-05-01T18:23:22.210Z,46.24
2023-05-01T18:25:48.948Z,46.38
2023-05-01T18:28:16.593Z,47.46
2023-05-01T18:30:43.356Z,47.63
2023-05-01T18:33:13.183Z,47.55
2023-05-01T18:35:42.224Z,48.13
2023-05-01T18:38:10.066Z,48.30
2023-05-01T18:40:39.657Z,49.18
2023-05-01T18:43:06.527Z,49.31
2023-05-01T18:45:33.285Z,50.23
2023-05-01T18:48:00.739Z,50.96
2023-05-01T18:50:27.846Z,51.22
2023-05-01T18:52:54.503Z,51.12
2023-05-01T18:55:21.273Z,51.37
2023-05-01T18:57:48.610Z,51.59
2023-05-01T19:00:18.104Z,51.93
2023-05-01T19:02:51.381Z,52.58
2023-05-01T19:05:18.951Z,53.26
2023-05-01T19:07:45.699Z,52.22
2023-05-01T19:10:12.463Z,52.35
2023-05-01T19:12:39.660Z,52.32
2023-05-01T19:15:09.342Z,52.71
2023-05-01T19:17:36.115Z,52.16
2023-05-01T19:20:04.683Z,52.22
2023-05-01T19:22:31.521Z,51.08
2023-05-01T19:25:00.450Z,51.61
2023-05-01T19:27:27.374Z,52.56
2023-05-01T19:29:54.735Z,53.54
2023-05-01T19:32:23.211Z,53.58
2023-05-01T19:34:50.124Z,52.86
2023-05-01T19:37:17.405Z,53.33
2023-05-01T19:39:44.231Z,52.48
2023-05-01T19:42:11.884Z,51.85
2023-05-01T19:44:38.582Z,51.76
2023-05-01T19:47:05.373Z,52.03
2023-05-01T19:49:32.042Z,51.28
2023-05-01T19:51:58.780Z,51.20
2023-05-01T19:54:26.387Z,50.05
2023-05-01T19:56:53.210Z,51.43
2023-05-01T19:59:19.981Z,50.21
2023-05-01T20:01:46.939Z,51.20
2023-05-01T20:04:13.987Z,50.59
2023-05-01T20:06:40.857Z,51.57
2023-05-01T20:09:07.807Z,51.00
2023-05-01T20:11:34.543Z,49.22
2023-05-01T20:14:03.622Z,50.47
2023-05-01T20:16:31.092Z,50.13
2023-05-01T20:18:57.931Z,49.71
2023-05-01T20:21:24.711Z,49.95
2023-05-01T20:23:51.509Z,49.83
2023-05-01T20:26:19.126Z,49.16
2023-05-01T20:28:46.065Z,49.12
2023-05-01T20:31:13.648Z,48.62
2023-05-01T20:33:40.482Z,47.77
2023-05-01T20:36:07.437Z,47.26
2023-05-01T20:38:40.876Z,47.70
2023-05-01T20:41:07.672Z,47.62
2023-05-01T20:43:34.510Z,47.21
2023-05-01T20:46:01.377Z,47.49
2023-05-01T20:48:28.164Z,47.13
2023-05-01T20:50:55.109Z,47.71
2023-05-01T20:53:21.831Z,47.98
2023-05-01T20:55:49.953Z,48.33
2023-05-01T20:58:16.872Z,48.70
2023-05-01T21:00:43.588Z,50.21
2023-05-01T21:03:10.598Z,50.08
2023-05-01T21:05:37.390Z,49.59
2023-05-01T21:08:04.238Z,50.09
2023-05-01T21:10:31.698Z,49.22
2023-05-01T21:12:58.728Z,48.37
2023-05-01T21:15:27.062Z,48.00
2023-05-01T21:17:53.754Z,48.73
2023-05-01T21:20:30.885Z,47.87
2023-05-01T21:22:57.666Z,47.04
2023-05-01T21:25:27.090Z,49.07
2023-05-01T21:27:54.199Z,53.83
2023-05-01T21:30:33.190Z,51.50
2023-05-01T21:33:01.001Z,56.20
2023-05-01T21:35:28.558Z,54.38
2023-05-01T21:37:55.474Z,53.58
2023-05-01T21:40:22.211Z,52.20
2023-05-01T21:42:48.990Z,53.11
2023-05-01T21:45:18.425Z,51.34
2023-05-01T21:47:47.978Z,53.23
2023-05-01T21:50:16.313Z,53.01
2023-05-01T21:52:44.205Z,53.47
2023-05-01T21:55:17.570Z,57.74
2023-05-01T21:57:44.621Z,56.34
2023-05-01T22:00:12.548Z,52.21
2023-05-01T22:02:44.481Z,51.69
2023-05-01T22:05:13.035Z,52.49
2023-05-01T22:07:47.121Z,51.43
2023-05-01T22:10:17.392Z,51.20
2023-05-01T22:12:44.966Z,54.09
2023-05-01T22:15:12.715Z,55.96
2023-05-01T22:36:06.015Z,52.15
2023-05-01T22:38:34.273Z,52.44
2023-05-01T22:41:00.956Z,52.27
2023-05-01T22:43:27.674Z,52.84
2023-05-01T22:45:54.432Z,54.84
2023-05-01T22:48:21.272Z,54.82
2023-05-01T22:50:48.162Z,57.19
2023-05-01T22:53:14.902Z,59.37
2023-05-01T22:55:41.731Z,61.79
2023-05-01T22:58:08.513Z,63.51
2023-05-01T23:00:35.197Z,63.46
2023-05-01T23:03:02.056Z,66.83
2023-05-01T23:05:29.484Z,67.89
2023-05-01T23:07:56.220Z,69.04
2023-05-01T23:10:24.491Z,72.35
2023-05-01T23:12:51.229Z,74.03
2023-05-01T23:15:23.374Z,76.03
2023-05-01T23:17:50.718Z,78.46
2023-05-01T23:20:24.693Z,80.62
2023-05-01T23:22:51.828Z,82.36
2023-05-01T23:25:24.506Z,84.58
2023-05-01T23:27:52.721Z,83.60
2023-05-01T23:30:22.870Z,86.06
2023-05-01T23:32:49.654Z,82.99
2023-05-01T23:35:24.007Z,83.25
2023-05-01T23:37:53.009Z,86.28
2023-05-01T23:40:19.940Z,81.04
2023-05-01T23:42:46.834Z,83.14
2023-05-01T23:45:13.565Z,79.13
2023-05-01T23:47:40.962Z,80.66
2023-05-01T23:50:08.061Z,81.93
2023-05-01T23:52:35.172Z,81.78
2023-05-01T23:55:01.835Z,81.72
2023-05-01T23:57:28.578Z,80.31
2023-05-01T23:59:55.577Z,82.35
